Airfield :
LOGIN :

Register | Disclaimer

   EN    FR    IT 

 










Legend :    VFR   Marginal VFR   IFR   Intensive IFR   Very Intensive IFR
Visi :
Ceiling :
>= 8 km
>= 3000ft
5 to 8 km
1000 to 3000 ft
1500m to 5 km
500 to 1000 ft
800 to 1500m
200 to 500 ft
< 800m
< 200 ft
Symbols :   Thunderstorms  Fog  Heavy snow  Heavy precipitations  Wind > 20 kt
SIGMETs :     Misc.  Thunderstorms  Icing  Turbulence  Mountain Waves  Volcanic Ashes







- Airport Elevation : 405 ft
- IATA code : ODH


EGVO - RAF Odiham

CURRENT METAR :
  • 191442Z 19012KT 3500 DZ BKN005 OVC008 18/17 Q1010 TEMPO 5000 -RADZ RMK YLO1 TEMPO YLO1

EXPIRED METARs :
  • 191420Z 20014KT 8000 -DZ BKN006 OVC010 17/16 Q1010 TEMPO 4000 DZ RMK YLO1 TEMPO YLO1
  • 191350Z 20015KT 9999 BKN006 OVC014 17/16 Q1010 TEMPO 3000 RADZ RMK YLO1 TEMPO YLO1
  • 191320Z 20014KT 2500 -DZ FEW004 BKN005 OVC014 17/16 Q1010 TEMPO SCT004 RMK YLO1 TEMPO YLO2
  • 191250Z 19011KT 3500 -DZ BKN005 OVC014 17/16 Q1011 TEMPO 5000 -DZ RMK YLO1 TEMPO YLO1
  • 191234Z 19013KT 3000 DZ BKN005 OVC014 17/16 Q1011 TEMPO 5000 -DZ RMK YLO1 TEMPO YLO1
  • 191220Z 18013KT 5000 -DZ BKN006 OVC014 17/17 Q1011 TEMPO 4000 DZ RMK YLO1 TEMPO YLO1

TAF TAF EGVO
Valid from the 19 at 15:00 until the 20 at 03:00 UTC


191331Z 1915/2003 19010KT 9999 BKN010
TEMPO 1915/1916 22015G25KT 4000 RA BKN006
PROB40
TEMPO 1915/2002 2000 RADZ BKN004
TEMPO 1916/2003 4000 RA BKN006
No reported NOTAMs for that airfield.
1 SIGMET reported for the London FIR (EGTT) :
 
Embedded thunderstorms
EGTT SIGMET 03 VALID 191345/191600 EGRR
EGTT LONDON FIR EMBD TS FCST WI N5109 W00500 - N5148 W00221 - N5105 W00145 - N5100 W00340 - N5030 W00425 - N5024 W00615 - N5109 W00500 TOP FL280 MOV NE 25KT NC=



MET'MAP, your aeronautical weather chart ! - Copyright ORBIFLY December 2007 - Disclaimer

ORBIFLY MET'MAP TEAM :

Programming & Development : Alexandra Zaïnal
Concept & Development : Baudouin d'Aumeries
Co-Development & Prog : Marc-Olivier Méhu
Technical & hardware support : Manuel Goepfert

Contact : metmap@orbifly.com




SOURCES & CREDITS :

   NOAA